Map

Track Data

SID SEASON NUMBER BASIN SUBBASIN NAME ISO_TIME NATURE LAT LON WMO_WIND WMO_PRES WMO_AGENCY TRACK_TYPE DIST2LAND LANDFALL IFLAG USA_AGENCY USA_ATCF_ID USA_LAT USA_LON USA_RECORD USA_STATUS USA_WIND USA_PRES USA_SSHS USA_R34_NE USA_R34_SE USA_R34_SW USA_R34_NW USA_R50_NE USA_R50_SE USA_R50_SW USA_R50_NW USA_R64_NE USA_R64_SE USA_R64_SW USA_R64_NW USA_POCI USA_ROCI USA_RMW USA_EYE TOKYO_LAT TOKYO_LON TOKYO_GRADE TOKYO_WIND TOKYO_PRES TOKYO_R50_DIR TOKYO_R50_LONG TOKYO_R50_SHORT TOKYO_R30_DIR TOKYO_R30_LONG TOKYO_R30_SHORT TOKYO_LAND CMA_LAT CMA_LON CMA_CAT CMA_WIND CMA_PRES HKO_LAT HKO_LON HKO_CAT HKO_WIND HKO_PRES NEWDELHI_LAT NEWDELHI_LON NEWDELHI_GRADE NEWDELHI_WIND NEWDELHI_PRES NEWDELHI_CI NEWDELHI_DP NEWDELHI_POCI REUNION_LAT REUNION_LON REUNION_TYPE REUNION_WIND REUNION_PRES REUNION_TNUM REUNION_CI REUNION_RMW REUNION_R34_NE REUNION_R34_SE REUNION_R34_SW REUNION_R34_NW REUNION_R50_NE REUNION_R50_SE REUNION_R50_SW REUNION_R50_NW REUNION_R64_NE REUNION_R64_SE REUNION_R64_SW REUNION_R64_NW BOM_LAT BOM_LON BOM_TYPE BOM_WIND BOM_PRES BOM_TNUM BOM_CI BOM_RMW BOM_R34_NE BOM_R34_SE BOM_R34_SW BOM_R34_NW BOM_R50_NE BOM_R50_SE BOM_R50_SW BOM_R50_NW BOM_R64_NE BOM_R64_SE BOM_R64_SW BOM_R64_NW BOM_ROCI BOM_POCI BOM_EYE BOM_POS_METHOD BOM_PRES_METHOD NADI_LAT NADI_LON NADI_CAT NADI_WIND NADI_PRES WELLINGTON_LAT WELLINGTON_LON WELLINGTON_WIND WELLINGTON_PRES DS824_LAT DS824_LON DS824_STAGE DS824_WIND DS824_PRES TD9636_LAT TD9636_LON TD9636_STAGE TD9636_WIND TD9636_PRES TD9635_LAT TD9635_LON TD9635_WIND TD9635_PRES TD9635_ROCI NEUMANN_LAT NEUMANN_LON NEUMANN_CLASS NEUMANN_WIND NEUMANN_PRES MLC_LAT MLC_LON MLC_CLASS MLC_WIND MLC_PRES USA_GUST BOM_GUST BOM_GUST_PER REUNION_GUST REUNION_GUST_PER USA_SEAHGT USA_SEARAD_NE USA_SEARAD_SE USA_SEARAD_SW USA_SEARAD_NW STORM_SPEED STORM_DIR
1974039S18153 1974 13 SP EA YVONNE 1974-02-08 11:00:00 NR -18.3000 152.600 20 1006 bom main 457 457 ______O_______ -1 -18.3000 152.600 20 20 1006 1.00000 45 45 14 337
1974039S18153 1974 13 SP EA YVONNE 1974-02-08 12:00:00 TS -18.0914 152.509 main 459 418 O_____P__OO_O_ jtwc_sh SH211974 -17.8000 152.500 -1 -18.3198 152.432 20 20 1005 -18.3000 152.400 TC 15 1006 -17.8000 152.500 2 -18.3000 152.800 TC 15 1006 8 283
1974039S18153 1974 13 SP EA YVONNE 1974-02-08 15:00:00 TS -18.1775 152.040 main 409 369 P_____P__PP_P_ SH211974 -17.9677 152.060 -1 -18.3810 151.929 20 21 1005 -18.3837 151.911 TC 16 1005 -17.9258 152.035 2 -18.3378 152.297 TC 17 1005 9 259
1974039S18153 1974 13 SP EA YVONNE 1974-02-08 18:00:00 TS -18.2691 151.561 main 369 329 O_____P__PP_O_ jtwc_sh SH211974 -18.1000 151.600 -1 -18.4498 151.428 20 22 1004 -18.4634 151.418 TC 17 1005 -18.0409 151.566 2 -18.4000 151.800 TC 20 1005 9 260
1974039S18153 1974 13 SP EA YVONNE 1974-02-08 21:00:00 TS -18.3416 151.076 main 329 298 P_____P__PP_P_ SH211974 -18.1724 151.107 -1 -18.5331 150.930 20 24 1004 -18.5365 150.915 TC 18 1004 -18.1355 151.088 2 -18.4998 151.308 TC 20 1004 9 261
1974039S18153 1974 13 SP EA YVONNE 1974-02-08 23:00:00 TS -18.3868 150.741 25 1004 bom main 291 284 P_____O__PP_P_ SH211974 -18.1942 150.769 -1 -18.6000 150.600 20 25 1004 1.50000 -18.5800 150.573 TC 19 1004 -18.1825 150.764 2 -18.5696 150.972 TC 20 1004 45 45 10 262
1974039S18153 1974 13 SP EA YVONNE 1974-02-09 00:00:00 TS -18.4061 150.573 main 284 264 O_____P__OO_O_ jtwc_sh SH211974 -18.2000 150.600 -1 -18.6368 150.436 20 25 1003 -18.6000 150.400 TC 20 1004 -18.2000 150.600 2 -18.6000 150.800 TC 20 1004 10 264
1974039S18153 1974 13 SP EA YVONNE 1974-02-09 02:00:00 TS -18.4393 150.233 25 1002 bom main 258 252 P_____O__PP_P_ SH211974 -18.2132 150.272 -1 -18.7000 150.100 20 25 1002 2.00000 -18.6352 150.048 TC 20 1003 -18.2221 150.267 2 -18.6520 150.441 TC 21 1003 45 45 10 265
1974039S18153 1974 13 SP EA YVONNE 1974-02-09 03:00:00 TS -18.4494 150.061 main 252 216 P_____P__PP_P_ SH211974 -18.2148 150.108 -1 -18.7177 149.925 20 25 1002 -18.6496 149.869 TC 21 1003 -18.2268 150.097 2 -18.6724 150.258 TC 22 1003 10 269
1974039S18153 1974 13 SP EA YVONNE 1974-02-09 06:00:00 TS -18.4515 149.530 main 209 193 O_____P__PP_O_ jtwc_sh SH211974 -18.2000 149.600 -1 -18.7177 149.375 20 27 1002 -18.6745 149.323 TC 22 1003 -18.2169 149.580 2 -18.7000 149.700 TC 25 1002 10 272
1974039S18153 1974 13 SP EA YVONNE 1974-02-09 09:00:00 TS -18.4198 148.980 main 193 168 P_____P__PP_P_ SH211974 -18.1724 149.058 -1 -18.6588 148.796 20 28 1002 -18.6621 148.766 TC 23 1002 -18.1736 149.048 2 -18.6798 149.158 TC 25 1002 11 275
1974039S18153 1974 13 SP EA YVONNE 1974-02-09 11:00:00 TS -18.3749 148.606 30 1002 bom main 168 153 P_____O__PP_P_ SH211974 -18.1306 148.686 -1 -18.6000 148.400 20 30 1002 2.50000 -18.6270 148.389 TC 24 1002 -18.1277 148.684 2 -18.6332 148.789 TC 25 1002 45 45 11 278
1974039S18153 1974 13 SP EA YVONNE 1974-02-09 12:00:00 TS -18.3454 148.417 main 161 143 O_____P__OO_O_ jtwc_sh SH211974 -18.1000 148.500 -1 -18.5726 148.200 20 33 1001 -18.6000 148.200 TC 25 1002 -18.1000 148.500 2 -18.6000 148.600 TC 25 1002 11 282
1974039S18153 1974 13 SP EA YVONNE 1974-02-09 14:00:00 TS -18.2638 148.038 40 999 bom main 138 138 P_____O__PP_P_ SH211974 -18.0102 148.139 -1 -18.5000 147.800 30 40 999 3.00000 -18.5100 147.816 TC 27 1000 -18.0314 148.130 2 -18.5212 148.202 TC 28 1000 55 55 11 284
1974039S18153 1974 13 SP EA YVONNE 1974-02-09 15:00:00 TS -18.2137 147.847 main 140 119 P_____P__PP_P_ SH211974 -17.9573 147.957 -1 -18.4490 147.603 30 41 998 -18.4548 147.623 TC 28 1000 -17.9912 147.943 2 -18.4724 148.000 TC 30 999 11 287
1974039S18153 1974 13 SP EA YVONNE 1974-02-09 18:00:00 TS -18.0450 147.273 main 125 64 O_____P__PP_O_ jtwc_sh SH211974 -17.8000 147.400 -1 -18.2484 147.025 30 46 997 -18.2647 147.041 TC 32 998 -17.8569 147.372 2 -18.3000 147.400 TC 35 997 11 287
1974039S18153 1974 13 SP EA YVONNE 1974-02-09 21:00:00 TS -17.8780 146.696 main 64 21 P_____P__PP_P_ SH211974 -17.6849 146.808 -1 -18.0270 146.465 30 51 995 -18.0673 146.464 TC 36 996 -17.7192 146.790 2 -18.0848 146.842 TC 37 996 11 286
1974039S18153 1974 13 SP EA YVONNE 1974-02-09 23:00:00 TS -17.7814 146.312 55 995 bom main 21 10 P_____O__PP_P_ SH211974 -17.6249 146.403 -1 -17.9000 146.100 30 55 995 3.50000 -17.9501 146.086 TC 38 995 -17.6363 146.397 2 -17.9520 146.481 TC 39 995 75 75 11 284
1974039S18153 1974 13 SP EA YVONNE 1974-02-10 00:00:00 TS -17.7433 146.120 main 0 0 O_____P__OO_O_ jtwc_sh SH211974 -17.6000 146.200 -1 -17.8599 145.918 30 52 995 -17.9000 145.900 TC 40 995 -17.6000 146.200 2 -17.9000 146.300 TC 40 995 11 278
1974039S18153 1974 13 SP EA YVONNE 1974-02-10 03:00:00 TS -17.6729 145.544 main 0 0 P_____P__PP_P_ SH211974 -17.5423 145.600 -1 -17.7781 145.381 30 46 997 -17.8146 145.356 TC 36 997 -17.5325 145.583 2 -17.8274 145.743 TC 37 997 11 276
1974039S18153 1974 13 SP EA YVONNE 1974-02-10 06:00:00 TS -17.6310 144.974 main 0 0 O_____P__PP_O_ jtwc_sh SH211974 -17.5000 145.000 -1 -17.7370 144.855 30 40 999 -17.7638 144.825 TC 32 999 -17.4852 144.963 2 -17.8000 145.200 TC 35 999 11 274
1974039S18153 1974 13 SP EA YVONNE 1974-02-10 09:00:00 TS -17.5902 144.409 main 0 0 P_____P__PP_P_ SH211974 -17.4500 144.378 -1 -17.7149 144.340 30 34 1001 -17.7311 144.307 TC 28 1001 -17.4451 144.361 2 -17.7498 144.693 TC 30 1001 11 274
1974039S18153 1974 13 SP EA YVONNE 1974-02-10 11:00:00 TS -17.5629 144.047 30 1003 bom main 0 0 P_____O__PP_P_ SH211974 -17.4167 143.983 -1 -17.7000 144.000 20 30 1003 -17.7112 143.968 TC 26 1002 -17.4164 143.981 2 -17.7166 144.364 TC 26 1002 45 45 10 275
1974039S18153 1974 13 SP EA YVONNE 1974-02-10 12:00:00 TS -17.5477 143.872 main 0 0 O_____P__OO_O_ jtwc_sh SH211974 -17.4000 143.800 -1 -17.6859 143.831 20 29 1003 -17.7000 143.800 TC 25 1003 -17.4000 143.800 2 -17.7000 144.200 TC 25 1003 10 276
1974039S18153 1974 13 SP EA YVONNE 1974-02-10 15:00:00 TS -17.5006 143.378 main 0 0 P_____P__PP_P_ SH211974 -17.3572 143.328 -1 -17.6450 143.328 20 28 1003 -17.6470 143.272 TC -17.3475 143.311 2 -17.6499 143.700 TC 25 1003 9 276
1974039S18153 1974 13 SP EA YVONNE 1974-02-10 18:00:00 TS -17.4463 142.907 main 0 0 O_____P__PP_O_ jtwc_sh SH211974 -17.3000 142.900 -1 -17.6007 142.831 20 27 1003 -17.5910 142.749 TC -17.2863 142.863 2 -17.6000 143.200 TC 25 1003 9 278
1974039S18153 1974 13 SP EA YVONNE 1974-02-10 21:00:00 TS -17.3784 142.435 main 0 0 P_____P__PP_P_ SH211974 -17.2149 142.450 -1 -17.5459 142.334 20 25 1003 -17.5301 142.242 TC -17.2070 142.433 2 -17.5574 142.700 TC 25 1003 9 279
1974039S18153 1974 13 SP EA YVONNE 1974-02-10 23:00:00 TS -17.3218 142.122 25 1004 bom main 0 0 P_____O__PP_P_ SH211974 -17.1416 142.150 -1 -17.5000 142.000 20 25 1004 -17.4859 141.916 TC -17.1393 142.146 2 -17.5223 142.367 TC 25 1003 45 45 9 281
1974039S18153 1974 13 SP EA YVONNE 1974-02-11 00:00:00 TS -17.2894 141.963 main 0 0 O_____P__PO_O_ jtwc_sh SH211974 -17.1000 142.000 -1 -17.4737 141.819 20 25 1003 -17.4625 141.758 TC -17.1000 142.000 2 -17.5000 142.200 TC 25 1004 9 283
1974039S18153 1974 13 SP EA YVONNE 1974-02-11 03:00:00 TS -17.1810 141.482 main 0 0 P_____P__PP_P_ SH211974 -16.9648 141.558 -1 -17.3841 141.288 20 25 1001 -17.3863 141.308 TC -16.9783 141.504 2 -17.4075 141.677 TC 27 1002 9 285
1974039S18153 1974 13 SP EA YVONNE 1974-02-11 05:30:00 TS -17.0742 141.097 25 1000 bom main 0 0 P_____O__PP_P_ SH211974 -16.8295 141.178 -1 -17.3000 140.900 20 25 1000 2.00000 -17.3152 140.965 TC -16.8532 141.087 2 -17.3179 141.273 TC 29 1000 45 45 9 286
1974039S18153 1974 13 SP EA YVONNE 1974-02-11 06:00:00 TS -17.0513 141.023 main 0 0 O_____P__OP_O_ jtwc_sh SH211974 -16.8000 141.100 -1 -17.2826 140.830 20 25 999 -17.3000 140.900 TC 30 1000 -16.8253 141.005 2 -17.3000 141.200 TC 30 1000 9 288
1974039S18153 1974 13 SP EA YVONNE 1974-02-11 09:00:00 TS -16.9131 140.581 main 44 44 P_____P__PP_P_ SH211974 -16.6300 140.593 -1 -17.1730 140.475 20 25 999 -17.2108 140.498 TC 30 999 -16.6346 140.529 2 -17.1999 140.798 TC 30 999 9 290
1974039S18153 1974 13 SP EA YVONNE 1974-02-11 11:00:00 TS -16.8050 140.320 25 999 bom main 77 77 P_____O__PP_P_ SH211974 -16.4864 140.258 -1 -17.1000 140.300 20 25 999 2.00000 -17.1402 140.283 TC 30 999 -16.4834 140.236 2 -17.1333 140.586 TC 30 999 45 45 8 295
1974039S18153 1974 13 SP EA YVONNE 1974-02-11 12:00:00 TS -16.7447 140.204 main 91 91 O_____P__OO_O_ jtwc_sh SH211974 -16.4000 140.100 -1 -17.0681 140.226 20 25 998 -17.1000 140.200 TC 30 999 -16.4000 140.100 2 -17.1000 140.500 TC 30 999 8 307
1974039S18153 1974 13 SP EA YVONNE 1974-02-11 15:00:00 TS -16.5014 139.900 main 93 92 P_____P__PP_P_ SH211974 -16.0650 139.655 -1 -16.9734 140.072 20 25 998 -16.9589 140.055 TC 32 998 -16.0529 139.692 2 -17.0074 140.313 TC 32 998 8 314
1974039S18153 1974 13 SP EA YVONNE 1974-02-11 17:00:00 TS -16.3098 139.728 25 998 bom main 94 94 P_____O__PP_P_ SH211974 -15.8188 139.405 -1 -16.9000 140.000 20 25 998 2.00000 -16.8538 140.014 TC 34 998 -15.8001 139.451 2 -16.9390 140.234 TC 34 998 45 45 8 320
1974039S18153 1974 13 SP EA YVONNE 1974-02-11 18:00:00 TS -16.1963 139.638 main 99 99 O_____P__OP_O_ jtwc_sh SH211974 -15.7000 139.300 -1 -16.8557 139.958 20 25 998 -16.8000 140.000 TC 35 998 -15.6748 139.342 2 -16.9000 140.200 TC 35 998 8 324
1974039S18153 1974 13 SP EA YVONNE 1974-02-11 21:00:00 TS -15.8999 139.416 main 119 119 P_____P___P_P_ SH211974 -15.3474 139.033 -1 -16.7054 139.853 20 25 998 TC -15.3343 139.070 2 -16.7650 140.093 TC 35 998 6 326
1974039S18153 1974 13 SP EA YVONNE 1974-02-11 23:00:00 TS -15.7493 139.326 25 998 bom main 138 138 P_____O___P_P_ SH211974 -15.1631 138.928 -1 -16.6000 139.800 20 25 998 2.00000 TC -15.1620 138.944 2 -16.6583 140.031 TC 35 998 45 45 5 330
1974039S18153 1974 13 SP EA YVONNE 1974-02-12 00:00:00 TS -15.6910 139.296 main 138 138 O_____P___O_O_ jtwc_sh SH211974 -15.1000 138.900 -1 -16.5552 139.780 20 25 998 -15.1000 138.900 2 -16.6000 140.000 TC 35 998 3 343
1974039S18153 1974 13 SP EA YVONNE 1974-02-12 03:00:00 TS -15.5840 139.265 main 148 148 P_____P___P_P_ SH211974 -15.0325 138.913 -1 -16.4158 139.736 20 28 998 -15.0395 138.862 2 -16.4000 139.900 TC 35 998 2 0
1974039S18153 1974 13 SP EA YVONNE 1974-02-12 05:00:00 TS -15.5524 139.273 30 998 bom main 148 148 P_____O___P_P_ SH211974 -15.0671 138.970 -1 -16.3000 139.700 20 30 998 2.50000 -15.0642 138.892 2 -16.2636 139.833 TC 35 998 45 45 1 0
1974039S18153 1974 13 SP EA YVONNE 1974-02-12 06:00:00 TS -15.5425 139.278 main 159 159 O_____P___P_O_ jtwc_sh SH211974 -15.1000 139.000 -1 -16.2202 139.672 20 30 998 -15.0923 138.918 2 -16.2000 139.800 TC 35 998 0 0
1974039S18153 1974 13 SP EA YVONNE 1974-02-12 09:00:00 TS -15.5291 139.279 main 159 159 P_____P___P_P_ SH211974 -15.2125 139.050 -1 -15.9538 139.572 20 30 998 -15.2240 139.015 2 -16.0425 139.708 TC 35 998 0 0
1974039S18153 1974 13 SP EA YVONNE 1974-02-12 11:00:00 TS -15.5495 139.276 30 998 bom main 159 148 P_____O___P_P_ SH211974 -15.3307 139.083 -1 -15.8000 139.500 20 30 998 2.50000 -15.3385 139.076 2 -15.9474 139.639 TC 35 998 45 45 1 0
1974039S18153 1974 13 SP EA YVONNE 1974-02-12 12:00:00 TS -15.5699 139.274 main 148 138 O_____P___O_O_ jtwc_sh SH211974 -15.4000 139.100 -1 -15.7495 139.472 20 31 997 -15.4000 139.100 2 -15.9000 139.600 TC 35 998 2 0
1974039S18153 1974 13 SP EA YVONNE 1974-02-12 15:00:00 TS -15.6627 139.266 main 138 135 P_____P___P_P_ SH211974 -15.6500 139.172 -1 -15.6503 139.383 20 36 995 -15.6207 139.154 2 -15.7425 139.450 TC 37 996 2 190
1974039S18153 1974 13 SP EA YVONNE 1974-02-12 17:00:00 TS -15.7351 139.245 40 994 bom main 135 124 P_____O___P_P_ SH211974 -15.8228 139.200 -1 -15.6000 139.300 30 40 994 3.00000 -15.7857 139.175 2 -15.6443 139.347 TC 39 995 55 55 2 202
1974039S18153 1974 13 SP EA YVONNE 1974-02-12 18:00:00 TS -15.7662 139.225 main 124 123 O_____P___P_O_ jtwc_sh SH211974 -15.9000 139.200 -1 -15.5641 139.245 30 41 993 -15.8671 139.178 2 -15.6000 139.300 TC 40 995 2 220
1974039S18153 1974 13 SP EA YVONNE 1974-02-12 21:00:00 TS -15.8487 139.142 main 123 112 P_____P___P_P_ SH211974 -16.1099 139.160 -1 -15.4588 139.044 30 46 992 -16.0799 139.138 2 -15.4850 139.208 TC 42 993 2 237
1974039S18153 1974 13 SP EA YVONNE 1974-02-12 23:00:00 TS -15.8756 139.048 50 992 bom main 109 109 P_____O___P_P_ SH211974 -16.1894 139.070 -1 -15.4000 138.900 30 50 992 3.50000 -16.1739 139.059 2 -15.4250 139.142 TC 44 992 69 69 3 260
1974039S18153 1974 13 SP EA YVONNE 1974-02-13 00:00:00 TS -15.8739 138.987 main 109 105 O_____P___O_O_ jtwc_sh SH211974 -16.2000 139.000 -1 -15.3697 138.836 30 50 991 -16.2000 139.000 2 -15.4000 139.100 TC 45 992 5 285
1974039S18153 1974 13 SP EA YVONNE 1974-02-13 03:00:00 TS -15.7931 138.733 main 112 102 P_____P___P_P_ SH211974 -16.0950 138.695 -1 -15.3042 138.641 30 50 990 -16.1511 138.713 2 -15.3200 138.922 TC 45 991 6 289
1974039S18153 1974 13 SP EA YVONNE 1974-02-13 05:00:00 TS -15.7181 138.523 50 990 bom main 102 93 P_____O___P_P_ SH211974 -15.9657 138.435 -1 -15.3000 138.500 30 50 990 3.50000 -16.0622 138.466 2 -15.2969 138.778 TC 45 990 69 69 7 289
1974039S18153 1974 13 SP EA YVONNE 1974-02-13 06:00:00 TS -15.6839 138.411 main 93 79 O_____P___P_O_ jtwc_sh SH211974 -15.9000 138.300 -1 -15.3136 138.422 30 50 990 -16.0057 138.332 2 -15.3000 138.700 TC 45 990 7 283
1974039S18153 1974 13 SP EA YVONNE 1974-02-13 09:00:00 TS -15.6173 138.065 main 79 70 P_____P___P_P_ SH211974 -15.7500 137.893 -1 -15.4091 138.172 30 50 991 -15.8073 137.910 2 -15.3700 138.458 TC 45 991 7 280
1974039S18153 1974 13 SP EA YVONNE 1974-02-13 11:00:00 TS -15.5841 137.833 50 992 bom main 68 64 P_____O___P_P_ SH211974 -15.6500 137.625 -1 -15.5000 138.000 30 50 992 3.50000 -15.6674 137.632 2 -15.4531 138.286 TC 45 991 69 69 7 279
1974039S18153 1974 13 SP EA YVONNE 1974-02-13 12:00:00 TS -15.5673 137.722 main 64 59 O_____P___O_O_ jtwc_sh SH211974 -15.6000 137.500 -1 -15.5364 137.911 30 50 992 -15.6000 137.500 2 -15.5000 138.200 TC 45 992 6 280
1974039S18153 1974 13 SP EA YVONNE 1974-02-13 15:00:00 TS -15.5166 137.424 main 59 56 P_____P___P_P_ SH211974 -15.4499 137.185 -1 -15.6709 137.651 30 50 992 -15.3849 137.158 2 -15.6275 137.942 TC 42 993 6 279
1974039S18153 1974 13 SP EA YVONNE 1974-02-13 17:00:00 TS -15.4960 137.242 50 992 bom main 55 55 P_____O___P_P_ SH211974 -15.3499 136.995 -1 -15.8000 137.500 30 50 992 3.50000 -15.2440 136.943 2 -15.7360 137.778 TC 40 993 69 69 5 273
1974039S18153 1974 13 SP EA YVONNE 1974-02-13 18:00:00 TS -15.5027 137.156 main 55 39 O_____P___P_O_ jtwc_sh SH211974 -15.3000 136.900 -1 -15.9336 137.443 30 50 992 -15.1799 136.839 2 -15.8000 137.700 TC 40 994 5 270
1974039S18153 1974 13 SP EA YVONNE 1974-02-13 21:00:00 TS -15.4960 136.875 main 39 30 P_____P___P_P_ SH211974 -15.1050 136.592 -1 -16.3367 137.302 30 50 993 -15.0350 136.551 2 -16.0325 137.490 TC 40 994 6 282
1974039S18153 1974 13 SP EA YVONNE 1974-02-13 23:00:00 TS -15.3959 136.647 50 995 bom main 35 34 P_____O___P_P_ SH211974 -15.0157 136.394 -1 -16.4000 137.200 30 50 995 3.50000 -14.9963 136.379 2 -16.2091 137.362 TC 40 994 69 69 9 301
1974039S18153 1974 13 SP EA YVONNE 1974-02-14 00:00:00 TS -15.2622 136.478 main 34 24 O_____P___O_O_ jtwc_sh SH211974 -15.0000 136.300 -1 -16.3163 137.138 30 43 -15.0000 136.300 2 -16.3000 137.300 TC 40 995 11 302
1974039S18153 1974 13 SP EA YVONNE 1974-02-14 02:00:00 TS -15.1183 136.183 30 bom main 31 24 P_____O___P___ SH211974 -15.0309 136.109 -1 -16.0000 137.000 20 30 -15.0726 136.127 2 TC 45 45 9 291
1974039S18153 1974 13 SP EA YVONNE 1974-02-14 03:00:00 TS -15.0936 136.029 main 22 0 P_________P___ SH211974 -15.0750 136.020 -1 20 -15.1308 136.045 2 TC 6 240
1974039S18153 1974 13 SP EA YVONNE 1974-02-14 06:00:00 TS -15.3241 135.810 main 0 0 O_________P___ jtwc_sh SH211974 -15.3000 135.800 -1 -15.3724 135.831 2 7 213
1974039S18153 1974 13 SP EA YVONNE 1974-02-14 09:00:00 TS -15.6442 135.657 main 0 0 P_________P___ SH211974 -15.6275 135.648 -1 -15.6777 135.676 2 7 197
1974039S18153 1974 13 SP EA YVONNE 1974-02-14 12:00:00 TS -16.0000 135.600 main 0 0 O_________O___ jtwc_sh SH211974 -16.0000 135.600 -1 -16.0000 135.600 2 7 182
1974039S18153 1974 13 SP EA YVONNE 1974-02-14 15:00:00 TS -16.3209 135.649 main 0 0 P_________P___ SH211974 -16.3150 135.670 -1 -16.3327 135.608 2 6 166
1974039S18153 1974 13 SP EA YVONNE 1974-02-14 18:00:00 TS -16.6208 135.765 main 0 0 O_________P___ jtwc_sh SH211974 -16.6000 135.800 -1 -16.6624 135.694 2 7 159
1974039S18153 1974 13 SP EA YVONNE 1974-02-14 21:00:00 TS -16.9236 135.898 main 0 0 P_________P___ SH211974 -16.9175 135.930 -1 -16.9359 135.833 2 5 155
1974039S18153 1974 13 SP EA YVONNE 1974-02-15 00:00:00 TS -17.1000 136.000 main 0 0 O_________O___ jtwc_sh SH211974 -17.1000 136.000 -1 -17.1000 136.000 2 2 139
1974039S18153 1974 13 SP EA YVONNE 1974-02-15 03:00:00 TS -17.0463 136.006 main 0 0 P_________P___ SH211974 -17.0325 135.923 -1 -17.0739 136.174 2 3 359
1974039S18153 1974 13 SP EA YVONNE 1974-02-15 06:00:00 TS -16.8467 135.989 main 0 0 O_________P___ jtwc_sh SH211974 -16.8000 135.800 -1 -16.9402 136.366 2 5 354
1974039S18153 1974 13 SP EA YVONNE 1974-02-15 09:00:00 TS -16.5721 135.976 main 0 0 P_________P___ SH211974 -16.4774 135.690 -1 -16.7614 136.549 2 5 3
1974039S18153 1974 13 SP EA YVONNE 1974-02-15 12:00:00 TS -16.3333 136.033 main 0 0 O_________O___ jtwc_sh SH211974 -16.2000 135.700 -1 -16.6000 136.700 2 4 37
1974039S18153 1974 13 SP EA YVONNE 1974-02-15 15:00:00 TS -16.2461 136.235 main 0 0 P_________P___ SH211974 -16.1326 135.948 -1 -16.4730 136.810 2 4 81
1974039S18153 1974 13 SP EA YVONNE 1974-02-15 18:00:00 TS -16.2616 136.494 main 0 0 O_________P___ jtwc_sh SH211974 -16.2000 136.300 -1 -16.3849 136.882 2 5 98
1974039S18153 1974 13 SP EA YVONNE 1974-02-15 21:00:00 TS -16.3148 136.734 main 0 0 P_________P___ SH211974 -16.2826 136.645 -1 -16.3793 136.913 2 5 121
1974039S18153 1974 13 SP EA YVONNE 1974-02-16 00:00:00 TS -16.5000 136.900 main 0 0 O_________O___ jtwc_sh SH211974 -16.5000 136.900 -1 -16.5000 136.900 2 6 160
1974039S18153 1974 13 SP EA YVONNE 1974-02-16 03:00:00 TS -16.8869 136.951 main 0 0 P_________P___ SH211974 -16.9124 136.975 -1 -16.8358 136.904 2 9 181
1974039S18153 1974 13 SP EA YVONNE 1974-02-16 06:00:00 TS -17.3631 136.886 main 0 0 O_________P___ jtwc_sh SH211974 -17.4000 136.900 -1 -17.2893 136.857 2 10 191
1974039S18153 1974 13 SP EA YVONNE 1974-02-16 09:00:00 TS -17.8159 136.761 main 0 0 P_________P___ SH211974 -17.8373 136.775 -1 -17.7731 136.732 2 9 204
1974039S18153 1974 13 SP EA YVONNE 1974-02-16 12:00:00 TS -18.2000 136.500 main 0 0 O_________O___ jtwc_sh SH211974 -18.2000 136.500 -1 -18.2000 136.500 2 9 227
1974039S18153 1974 13 SP EA YVONNE 1974-02-16 15:00:00 TS -18.4452 136.056 main 0 0 P_________P___ SH211974 -18.4377 136.037 -1 -18.4602 136.093 2 10 246
1974039S18153 1974 13 SP EA YVONNE 1974-02-16 18:00:00 TS -18.6164 135.529 main 0 0 O_________P___ jtwc_sh SH211974 -18.6000 135.500 -1 -18.6492 135.588 2 10 251
1974039S18153 1974 13 SP EA YVONNE 1974-02-16 21:00:00 TS -18.7728 135.025 main 0 0 P_________P___ SH211974 -18.7650 135.005 -1 -18.7884 135.064 2 9 252
1974039S18153 1974 13 SI WA YVONNE 1974-02-17 00:00:00 TS -18.9000 134.600 main 0 0 O_________O___ jtwc_sh SH211974 -18.9000 134.600 -1 -18.9000 134.600 2 7 249
1974039S18153 1974 13 SI WA YVONNE 1974-02-17 03:00:00 TS -19.0118 134.351 main 0 0 P_________P___ SH211974 -19.0073 134.370 -1 -19.0207 134.315 2 5 243
1974039S18153 1974 13 SI WA YVONNE 1974-02-17 06:00:00 TS -19.1071 134.166 main 0 0 O_________P___ jtwc_sh SH211974 -19.1000 134.200 -1 -19.1214 134.097 2 4 243
1974039S18153 1974 13 SI WA YVONNE 1974-02-17 09:00:00 TS -19.2038 133.945 main 0 0 P_________P___ SH211974 -19.2000 133.965 -1 -19.2115 133.905 2 5 246
1974039S18153 1974 13 SI WA YVONNE 1974-02-17 12:00:00 TS -19.3000 133.700 main 0 0 O_________O___ jtwc_sh SH211974 -19.3000 133.700 -1 -19.3000 133.700 2 5 248
1974039S18153 1974 13 SI WA YVONNE 1974-02-17 15:00:00 TS -19.4013 133.418 main 0 0 P_________P___ SH211974 -19.4000 133.407 -1 -19.4039 133.438 2 6 250
1974039S18153 1974 13 SI WA YVONNE 1974-02-17 18:00:00 TS -19.5024 133.117 main 0 0 O_________P___ jtwc_sh SH211974 -19.5000 133.100 -1 -19.5072 133.152 2 6 250
1974039S18153 1974 13 SI WA YVONNE 1974-02-17 21:00:00 TS -19.6022 132.824 main 0 0 P_________P___ SH211974 -19.5999 132.815 -1 -19.6069 132.841 2 6 251
1974039S18153 1974 13 SI WA YVONNE 1974-02-18 00:00:00 TS -19.7000 132.500 main 0 0 O_________O___ jtwc_sh SH211974 -19.7000 132.500 -1 -19.7000 132.500 2 7 253
1974039S18153 1974 13 SI WA YVONNE 1974-02-18 03:00:00 TS -19.8031 132.121 main 0 0 P_________P___ SH211974 -19.8075 132.115 -1 -19.7943 132.133 2 8 255
1974039S18153 1974 13 SI WA YVONNE 1974-02-18 06:00:00 TS -19.8933 131.713 main 0 0 O_________P___ jtwc_sh SH211974 -19.9000 131.700 -1 -19.8799 131.738 2 8 258
1974039S18153 1974 13 SI WA YVONNE 1974-02-18 09:00:00 TS -19.9601 131.313 main 0 0 P_________P___ SH211974 -19.9649 131.307 -1 -19.9505 131.324 2 8 262
1974039S18153 1974 13 SI WA YVONNE 1974-02-18 12:00:00 TS -20.0000 130.900 main 0 0 O_________O___ jtwc_sh SH211974 -20.0000 130.900 -1 -20.0000 130.900 2 8 266
1974039S18153 1974 13 SI WA YVONNE 1974-02-18 15:00:00 TS -20.0122 130.452 main 0 0 P_________P___ SH211974 -20.0075 130.450 -1 -20.0217 130.458 2 8 269
1974039S18153 1974 13 SI WA YVONNE 1974-02-18 18:00:00 TS -20.0076 130.004 main 0 0 O_________P___ jtwc_sh SH211974 -20.0000 130.000 -1 -20.0228 130.012 2 8 271
1974039S18153 1974 13 SI WA YVONNE 1974-02-18 21:00:00 TS -20.0041 129.575 main 0 0 P_________P___ SH211974 -20.0000 129.570 -1 -20.0124 129.586 2 8 271
1974039S18153 1974 13 SI WA YVONNE 1974-02-19 00:00:00 TS -20.0000 129.200 main 0 0 O_________O___ jtwc_sh SH211974 -20.0000 129.200 -1 -20.0000 129.200 2 6 271
1974039S18153 1974 13 SI WA YVONNE 1974-02-19 03:00:00 TS -19.9983 128.917 main 0 0 P_________P___ SH211974 -19.9998 128.935 -1 -19.9954 128.882 2 5 270
1974039S18153 1974 13 SI WA YVONNE 1974-02-19 06:00:00 TS -19.9973 128.668 main 0 0 O_________P___ jtwc_sh SH211974 -20.0000 128.700 -1 -19.9918 128.605 2 5 270
1974039S18153 1974 13 SI WA YVONNE 1974-02-19 09:00:00 TS -19.9975 128.384 main 0 0 P_________P___ SH211974 -20.0000 128.400 -1 -19.9924 128.351 2 5 270
1974039S18153 1974 13 SI WA YVONNE 1974-02-19 12:00:00 TS -20.0000 128.100 main 0 0 O_________O___ jtwc_sh SH211974 -20.0000 128.100 -1 -20.0000 128.100 2 5 271
1974039S18153 1974 13 SI WA YVONNE 1974-02-19 15:00:00 TS -19.9907 127.878 main 0 0 P_________P___ SH211974 -19.9924 127.850 -1 -19.9872 127.934 2 4 271
1974039S18153 1974 13 SI WA YVONNE 1974-02-19 18:00:00 TS -19.9954 127.650 main 0 0 O_________P___ jtwc_sh SH211974 -20.0000 127.600 -1 -19.9863 127.750 2 4 266
1974039S18153 1974 13 SI WA YVONNE 1974-02-19 21:00:00 TS -20.0237 127.411 main 0 0 P_________P___ SH211974 -20.0269 127.382 -1 -20.0174 127.467 2 6 260
1974039S18153 1974 13 SI WA YVONNE 1974-02-20 00:00:00 TS -20.1000 127.000 main 0 0 O_________O___ jtwc_sh SH211974 -20.1000 127.000 -1 -20.1000 127.000 2 11 259
1974039S18153 1974 13 SI WA YVONNE 1974-02-20 03:00:00 TS -20.2281 126.285 main 0 0 P_________P___ SH211974 -20.2197 126.320 -1 -20.2447 126.217 2 16 259
1974039S18153 1974 13 SI WA YVONNE 1974-02-20 06:00:00 TS -20.4124 125.350 main 0 0 O_________P___ jtwc_sh SH211974 -20.4000 125.400 -1 -20.4371 125.251 2 19 258
1974039S18153 1974 13 SI WA YVONNE 1974-02-20 09:00:00 TS -20.6440 124.270 main 0 0 P_________P___ SH211974 -20.6359 124.300 -1 -20.6603 124.210 2 21 256
1974039S18153 1974 13 SI WA YVONNE 1974-02-20 12:00:00 TS -20.9000 123.200 main 0 0 O_________O___ jtwc_sh SH211974 -20.9000 123.200 -1 -20.9000 123.200 2 19 254
1974039S18153 1974 13 SI WA YVONNE 1974-02-20 15:00:00 TS -21.1480 122.333 main 0 0 P_________P___ SH211974 -21.1490 122.347 -1 -21.1460 122.305 2 16 252
1974039S18153 1974 13 SI WA YVONNE 1974-02-20 18:00:00 TS -21.3986 121.571 main 0 0 O_________P___ jtwc_sh SH211974 -21.4000 121.600 -1 -21.3957 121.514 2 15 250
1974039S18153 1974 13 SI WA YVONNE 1974-02-20 21:00:00 TS -21.6499 120.834 main 0 0 P_________P___ SH211974 -21.6510 120.856 -1 -21.6478 120.790 2 15 250
1974039S18153 1974 13 SI WA YVONNE 1974-02-21 00:00:00 TS -21.9000 120.100 main 0 O_________O___ jtwc_sh SH211974 -21.9000 120.100 -1 -21.9000 120.100 2 15 250

Digital Typhoon Data and Search

About IBTrACS Database

This database is a web-friendly format of International Best Track Archive for Climate Stewardship (IBTrACS), a global best track data archive curated by NOAA dating back to 1842.

Updated: 2021-12-01